Time;durP1;ratioP1;P1;durP2;ratioP2;P2;SDS_P1;SDS_P2;PMS_P1;PMS_P2;Temp;Humidity;BMP_temperature;BMP_pressure;BME280_temperature;BME280_humidity;BME280_pressure;Samples;Min_cycle;Max_cycle;Signal;HPM_P1;HPM_P2
2021/05/07 00:02:16;;;;;;;13.10;3.80;;;;;;;1.27;67.90;98495.14;1702059;83;21171;-69
2021/05/07 00:04:43;;;;;;;13.80;4.05;;;;;;;1.25;67.99;98493.88;1702839;83;21378;-69
2021/05/07 00:07:09;;;;;;;16.23;4.17;;;;;;;1.24;68.06;98499.92;1700897;83;21662;-69
2021/05/07 00:09:37;;;;;;;13.15;3.55;;;;;;;1.22;68.09;98489.28;1704627;83;21225;-69
2021/05/07 00:12:08;;;;;;;9.65;3.40;;;;;;;1.20;68.15;98484.63;1707341;83;21061;-69
2021/05/07 00:14:33;;;;;;;16.12;3.83;;;;;;;1.18;68.17;98491.56;1704406;82;21538;-69
2021/05/07 00:17:00;;;;;;;10.50;3.15;;;;;;;1.17;68.25;98487.28;1702375;83;21214;-69
2021/05/07 00:19:27;;;;;;;11.93;3.65;;;;;;;1.19;68.34;98488.09;1700689;83;21041;-69
2021/05/07 00:21:54;;;;;;;12.25;4.35;;;;;;;1.19;68.34;98488.09;1703878;83;21590;-69
2021/05/07 00:24:21;;;;;;;16.73;4.42;;;;;;;1.17;68.36;98489.86;1709120;83;21056;-69
2021/05/07 00:26:48;;;;;;;21.10;4.60;;;;;;;1.15;68.39;98489.05;1705699;83;21182;-69
2021/05/07 00:29:15;;;;;;;9.10;4.33;;;;;;;1.16;68.44;98489.47;1706254;83;22396;-69
2021/05/07 00:31:42;;;;;;;11.38;4.33;;;;;;;1.14;68.50;98488.66;1705388;82;21068;-69
2021/05/07 00:34:09;;;;;;;14.95;3.85;;;;;;;1.11;68.51;98485.28;1702027;83;21398;-69
2021/05/07 00:36:36;;;;;;;15.98;4.35;;;;;;;1.10;68.58;98487.47;1706330;83;21033;-68
2021/05/07 00:39:04;;;;;;;13.28;3.87;;;;;;;1.08;68.62;98485.83;1703229;83;21182;-68
2021/05/07 00:41:31;;;;;;;15.65;4.22;;;;;;;1.03;68.62;98488.52;1701850;83;22337;-68
2021/05/07 00:43:58;;;;;;;12.05;4.75;;;;;;;0.99;68.70;98493.36;1702928;83;21092;-69
2021/05/07 00:46:25;;;;;;;12.03;4.37;;;;;;;0.95;68.73;98489.17;1704356;83;21116;-69
2021/05/07 00:48:52;;;;;;;17.77;4.25;;;;;;;0.94;68.82;98487.95;1705959;83;21179;-69
2021/05/07 00:51:21;;;;;;;12.90;4.58;;;;;;;0.93;68.82;98489.67;1706820;83;21227;-69
2021/05/07 00:53:49;;;;;;;12.00;3.85;;;;;;;0.92;68.91;98490.55;1706756;83;21288;-69
2021/05/07 00:56:16;;;;;;;16.25;4.28;;;;;;;0.93;69.00;98489.67;1708877;83;21064;-69
2021/05/07 00:58:43;;;;;;;12.00;3.60;;;;;;;0.94;69.06;98484.09;1706430;83;21048;-69
2021/05/07 01:01:10;;;;;;;10.88;3.58;;;;;;;0.95;69.14;98478.89;1707942;83;21201;-69
2021/05/07 01:03:37;;;;;;;11.18;3.20;;;;;;;0.96;69.13;98481.05;1704515;83;21610;-69
2021/05/07 01:06:05;;;;;;;10.72;3.12;;;;;;;0.96;69.18;98478.02;1707593;83;22161;-69
2021/05/07 01:08:32;;;;;;;12.23;3.10;;;;;;;0.98;69.23;98482.69;1710993;83;21060;-69
2021/05/07 01:10:59;;;;;;;9.93;3.02;;;;;;;1.03;69.32;98480.80;1710966;82;21056;-69
2021/05/07 01:13:26;;;;;;;13.30;3.87;;;;;;;1.04;69.30;98473.52;1709926;83;21069;-69
2021/05/07 01:15:53;;;;;;;17.12;3.17;;;;;;;1.07;69.33;98468.28;1713254;83;21190;-69
2021/05/07 01:18:20;;;;;;;15.03;3.52;;;;;;;1.08;69.37;98476.83;1709897;83;22804;-69
2021/05/07 01:20:47;;;;;;;18.87;4.17;;;;;;;1.10;69.44;98474.61;1706395;82;21228;-69
2021/05/07 01:23:14;;;;;;;13.18;3.52;;;;;;;1.13;69.42;98474.13;1707341;83;21009;-69
2021/05/07 01:25:44;;;;;;;12.47;3.75;;;;;;;1.14;69.47;98469.37;1708941;83;20969;-69
2021/05/07 01:28:13;;;;;;;12.03;4.35;;;;;;;1.15;69.46;98465.91;1708941;83;21131;-69
2021/05/07 01:30:45;;;;;;;12.80;3.67;;;;;;;1.19;69.52;98471.38;1706497;82;21413;-69
2021/05/07 01:35:50;;;;;;;9.98;4.58;;;;;;;1.23;69.60;98461.39;1802596;78;22822;-68
2021/05/07 01:38:18;;;;;;;11.08;3.58;;;;;;;1.21;69.61;98465.75;1769371;80;21113;-68
2021/05/07 01:40:49;;;;;;;10.48;4.12;;;;;;;1.21;69.68;98463.19;1762089;80;23008;-68
2021/05/07 01:43:16;;;;;;;16.87;4.90;;;;;;;1.21;69.74;98468.33;1766682;80;21670;-70
2021/05/07 01:45:46;;;;;;;19.52;4.10;;;;;;;1.20;69.80;98467.46;1765397;80;21060;-69
2021/05/07 01:48:15;;;;;;;13.43;3.60;;;;;;;1.18;69.73;98465.84;1765532;80;21073;-69
2021/05/07 01:50:45;;;;;;;14.53;3.55;;;;;;;1.15;69.80;98465.91;1771502;80;21045;-69
2021/05/07 01:53:12;;;;;;;16.65;4.37;;;;;;;1.12;69.84;98469.41;1770087;80;21398;-69
2021/05/07 01:55:47;;;;;;;14.07;4.08;;;;;;;1.10;69.88;98466.06;1768355;79;23856;-69
2021/05/07 01:58:17;;;;;;;8.48;3.47;;;;;;;1.09;69.95;98465.64;1770051;80;21205;-68
2021/05/07 02:00:44;;;;;;;15.80;4.25;;;;;;;1.08;70.05;98463.52;1767209;80;21670;-70
2021/05/07 02:03:12;;;;;;;17.82;4.55;;;;;;;1.08;70.07;98465.26;1768187;80;21583;-69
2021/05/07 02:05:39;;;;;;;16.97;3.62;;;;;;;1.08;70.12;98458.38;1774967;80;21204;-69
2021/05/07 02:08:08;;;;;;;8.70;3.12;;;;;;;1.10;70.10;98464.33;1778509;80;21203;-69
2021/05/07 02:10:35;;;;;;;10.48;3.40;;;;;;;1.14;70.26;98459.09;1772621;79;21803;-69
2021/05/07 02:13:06;;;;;;;14.07;3.92;;;;;;;1.14;70.18;98457.81;1768062;80;21223;-69
2021/05/07 02:15:33;;;;;;;7.97;3.08;;;;;;;1.14;70.20;98456.53;1768133;78;21766;-69
2021/05/07 02:18:02;;;;;;;12.13;4.53;;;;;;;1.15;70.25;98450.48;1772157;80;21145;-69
2021/05/07 02:20:50;;;;;;;10.48;3.50;;;;;;;1.15;70.31;98453.05;1771554;79;21234;-69
2021/05/07 02:23:17;;;;;;;13.38;3.87;;;;;;;1.15;70.30;98450.48;1699847;83;21242;-69
2021/05/07 02:25:44;;;;;;;12.35;3.50;;;;;;;1.16;70.35;98449.62;1696334;83;21191;-69
2021/05/07 02:28:11;;;;;;;14.38;3.50;;;;;;;1.17;70.38;98448.72;1694240;83;21598;-69
2021/05/07 02:30:38;;;;;;;13.25;4.58;;;;;;;1.18;70.45;98442.71;1698220;82;21416;-69
2021/05/07 02:33:05;;;;;;;9.08;2.92;;;;;;;1.20;70.49;98444.31;1694929;83;21207;-69
2021/05/07 02:35:33;;;;;;;11.38;3.25;;;;;;;1.24;70.55;98446.37;1697580;83;21262;-69
2021/05/07 02:38:00;;;;;;;12.98;3.30;;;;;;;1.25;70.55;98441.62;1691763;83;21211;-69
2021/05/07 02:40:27;;;;;;;12.58;2.85;;;;;;;1.26;70.60;98443.30;1696105;81;21195;-69
2021/05/07 02:42:56;;;;;;;10.72;3.27;;;;;;;1.26;70.63;98444.58;1689797;83;22373;-69
2021/05/07 02:45:23;;;;;;;12.95;3.52;;;;;;;1.27;70.59;98450.14;1662862;85;21232;-69
2021/05/07 02:47:50;;;;;;;12.80;4.50;;;;;;;1.26;70.68;98447.15;1642572;86;21266;-69
2021/05/07 02:50:17;;;;;;;10.53;3.87;;;;;;;1.29;70.68;98444.52;1639774;86;21615;-69
2021/05/07 02:52:45;;;;;;;13.85;3.80;;;;;;;1.32;70.72;98445.70;1637096;86;21765;-69
2021/05/07 02:55:12;;;;;;;10.63;3.45;;;;;;;1.34;70.72;98443.91;1652980;86;21156;-68
2021/05/07 02:57:40;;;;;;;8.83;3.17;;;;;;;1.38;70.77;98440.82;1650868;85;21052;-68
2021/05/07 03:00:09;;;;;;;11.90;3.47;;;;;;;1.40;70.77;98445.03;1648112;86;21278;-69
2021/05/07 03:02:36;;;;;;;12.82;3.55;;;;;;;1.42;70.81;98441.95;1654281;85;21631;-68
2021/05/07 03:05:08;;;;;;;14.63;3.58;;;;;;;1.45;70.84;98439.27;1633350;86;21239;-68
2021/05/07 03:07:35;;;;;;;8.23;3.20;;;;;;;1.46;70.85;98431.98;1636260;86;22167;-68
2021/05/07 03:10:03;;;;;;;12.35;3.35;;;;;;;1.48;70.89;98439.18;1667186;84;22047;-68
2021/05/07 03:12:30;;;;;;;11.48;3.60;;;;;;;1.49;70.86;98440.88;1639386;86;21639;-69
2021/05/07 03:14:57;;;;;;;12.78;3.20;;;;;;;1.51;70.92;98438.24;1635979;86;21218;-69
2021/05/07 03:17:24;;;;;;;13.53;3.62;;;;;;;1.54;70.98;98439.02;1660874;85;21740;-68
2021/05/07 03:19:51;;;;;;;11.75;3.25;;;;;;;1.59;70.98;98444.44;1659652;85;21594;-69
2021/05/07 03:22:18;;;;;;;6.47;3.10;;;;;;;1.63;71.02;98442.19;1637513;87;21633;-68
2021/05/07 03:24:45;;;;;;;13.45;3.77;;;;;;;1.69;71.05;98439.41;1668817;85;21611;-68
2021/05/07 03:27:12;;;;;;;10.32;3.02;;;;;;;1.75;71.05;98446.48;1643359;86;21636;-68
2021/05/07 03:29:39;;;;;;;11.50;2.83;;;;;;;1.82;71.10;98439.84;1644837;85;21237;-69
2021/05/07 03:32:07;;;;;;;12.37;3.40;;;;;;;1.89;71.11;98449.91;1638581;86;22198;-69
2021/05/07 03:34:33;;;;;;;;;;;;;;;1.95;71.13;98443.27;1644491;86;21258;-69
2021/05/07 03:37:00;;;;;;;19.77;3.47;;;;;;;1.99;71.17;98435.84;1655831;85;20243;-69
2021/05/07 03:39:28;;;;;;;16.70;3.67;;;;;;;2.03;71.12;98447.33;1653423;85;21234;-69
2021/05/07 03:41:55;;;;;;;14.23;3.65;;;;;;;2.09;71.15;98444.55;1652771;85;21266;-69
2021/05/07 03:44:22;;;;;;;23.38;4.03;;;;;;;2.14;71.19;98446.08;1654159;85;21218;-68
2021/05/07 03:46:49;;;;;;;72.97;14.43;;;;;;;2.29;71.26;98443.42;1648168;85;21645;-69
2021/05/07 03:49:16;;;;;;;63.73;17.40;;;;;;;2.57;71.40;98450.20;1656402;85;21235;-69
2021/05/07 03:51:43;;;;;;;56.42;14.83;;;;;;;2.87;71.34;98449.11;1660779;85;21322;-69
2021/05/07 03:54:10;;;;;;;36.25;8.90;;;;;;;3.16;71.30;98447.18;1649553;85;21174;-68
2021/05/07 03:56:37;;;;;;;19.10;6.28;;;;;;;3.56;71.38;98445.67;1654284;85;21289;-68
2021/05/07 03:59:04;;;;;;;32.33;7.33;;;;;;;4.17;71.43;98441.91;1662769;85;21185;-69
2021/05/07 04:01:31;;;;;;;24.75;7.37;;;;;;;4.71;71.11;98435.73;1644749;85;21939;-69
2021/05/07 04:04:00;;;;;;;23.00;7.37;;;;;;;5.25;70.88;98438.48;1647917;86;21776;-70
2021/05/07 04:06:27;;;;;;;40.70;15.25;;;;;;;5.60;70.45;98434.23;1660691;84;21602;-69
2021/05/07 04:14:04;;;;;;;33.35;6.65;;;;;;;6.37;70.10;98434.41;1763153;80;21027;-69
2021/05/07 04:16:31;;;;;;;47.73;8.15;;;;;;;6.61;70.08;98434.89;1763770;80;21205;-68
2021/05/07 04:18:58;;;;;;;29.10;7.03;;;;;;;7.10;70.28;98432.33;1767561;80;21717;-69
2021/05/07 04:21:26;;;;;;;60.38;9.90;;;;;;;8.03;70.57;98426.29;1763805;80;20987;-69
2021/05/07 04:23:52;;;;;;;25.82;5.42;;;;;;;9.44;70.72;98421.73;1770127;79;28420;-69
2021/05/07 04:26:20;;;;;;;30.20;5.80;;;;;;;10.94;69.48;98422.20;1769588;79;21226;-70
2021/05/07 04:28:47;;;;;;;40.88;8.03;;;;;;;11.82;69.03;98416.83;1764836;80;21241;-70
2021/05/07 04:31:14;;;;;;;;;;;;;;;12.90;68.34;98417.45;1766088;80;21076;-70
2021/05/07 04:33:41;;;;;;;27.85;6.20;;;;;;;14.10;67.92;98413.16;1765926;80;27338;-70
2021/05/07 04:36:08;;;;;;;24.02;6.28;;;;;;;15.25;67.85;98415.25;1767744;79;21245;-70
2021/05/07 04:38:37;;;;;;;23.98;7.40;;;;;;;16.23;66.81;98409.63;1773775;79;21025;-70
2021/05/07 04:41:05;;;;;;;21.87;5.45;;;;;;;16.71;65.56;98410.02;1769193;80;21692;-70
2021/05/07 04:43:32;;;;;;;40.10;7.60;;;;;;;17.00;65.23;98403.38;1769789;80;21053;-71
2021/05/07 04:45:58;;;;;;;;;;;;;;;17.19;64.56;98408.53;1769005;80;21165;-71
2021/05/07 04:48:26;;;;;;;;;;;;;;;17.45;64.02;98413.14;1768082;80;20200;-71
2021/05/07 04:50:54;;;;;;;31.60;11.18;;;;;;;17.81;62.49;98407.91;1765887;80;20406;-71
2021/05/07 04:53:21;;;;;;;59.27;12.60;;;;;;;17.92;63.25;98412.96;1772121;80;21474;-71
2021/05/07 04:55:50;;;;;;;20.00;4.25;;;;;;;17.94;62.21;98411.01;1769517;80;21210;-71
2021/05/07 04:58:17;;;;;;;69.92;9.83;;;;;;;18.10;62.54;98423.54;1716143;83;20992;-71
2021/05/07 05:02:21;;;;;;;35.92;5.28;;;;;;;18.41;60.90;98423.95;1802615;78;22538;-71
2021/05/07 05:04:49;;;;;;;37.50;6.05;;;;;;;18.54;62.03;98421.74;1774065;80;21172;-71
2021/05/07 05:07:16;;;;;;;49.67;6.20;;;;;;;18.70;60.65;98428.10;1771191;80;21026;-71
2021/05/07 05:09:42;;;;;;;;;;;;;;;18.45;60.64;98427.93;1774578;80;21037;-71
2021/05/07 05:12:11;;;;;;;14.83;4.58;;;;;;;18.00;59.08;98428.88;1767673;80;20499;-71
2021/05/07 05:14:39;;;;;;;75.05;8.43;;;;;;;17.18;59.16;98433.25;1771206;80;21249;-71
2021/05/07 05:17:05;;;;;;;;;;;;;;;16.31;59.31;98431.66;1768094;80;21068;-70
2021/05/07 05:19:32;;;;;;;15.50;2.83;;;;;;;16.22;59.51;98435.14;1760969;80;21278;-70
2021/05/07 05:22:00;;;;;;;64.30;7.05;;;;;;;16.29;59.39;98441.50;1767416;80;21216;-71
2021/05/07 05:24:28;;;;;;;84.07;10.63;;;;;;;16.85;59.93;98441.71;1764744;79;20977;-71
2021/05/07 05:26:56;;;;;;;10.68;3.05;;;;;;;17.45;59.38;98438.20;1762424;79;21171;-72
2021/05/07 05:29:24;;;;;;;21.25;3.40;;;;;;;17.94;58.66;98442.70;1766339;79;21216;-72
2021/05/07 05:31:51;;;;;;;22.52;3.70;;;;;;;18.07;58.26;98445.80;1768698;80;21193;-70
2021/05/07 05:34:17;;;;;;;;;;;;;;;18.03;57.49;98443.60;1768545;79;21026;-71
2021/05/07 05:36:46;;;;;;;26.95;4.05;;;;;;;18.38;57.12;98442.76;1769784;79;20321;-74
2021/05/07 05:39:16;;;;;;;9.60;2.95;;;;;;;18.67;57.31;98444.28;1767050;79;21188;-71
2021/05/07 05:41:44;;;;;;;17.10;3.30;;;;;;;19.00;57.00;98447.48;1769370;80;21239;-69
2021/05/07 05:44:11;;;;;;;93.85;8.13;;;;;;;19.17;56.59;98448.90;1767441;80;22158;-72
2021/05/07 05:46:38;;;;;;;104.95;10.10;;;;;;;19.36;55.85;98439.89;1767943;80;21409;-71
2021/05/07 05:49:06;;;;;;;41.98;5.47;;;;;;;19.22;55.48;98449.27;1774037;80;21195;-71
2021/05/07 05:51:35;;;;;;;19.37;3.67;;;;;;;19.08;55.54;98451.18;1770739;79;21717;-72
2021/05/07 05:54:02;;;;;;;14.38;3.10;;;;;;;19.11;55.17;98449.54;1731970;81;21204;-71
2021/05/07 05:56:29;;;;;;;7.60;2.50;;;;;;;18.70;54.42;98446.61;1708999;83;21660;-71
2021/05/07 05:58:56;;;;;;;7.97;2.45;;;;;;;17.97;53.74;98452.95;1714489;83;21607;-71
2021/05/07 06:01:23;;;;;;;8.93;2.60;;;;;;;17.06;53.56;98455.53;1702997;82;21195;-71
2021/05/07 06:03:50;;;;;;;8.90;2.75;;;;;;;16.15;53.66;98459.04;1721662;82;21049;-71
2021/05/07 06:06:18;;;;;;;12.53;2.92;;;;;;;15.67;53.86;98465.05;1720990;82;21215;-71
2021/05/07 06:08:45;;;;;;;7.40;2.83;;;;;;;15.24;54.04;98459.61;1727447;82;21384;-70
2021/05/07 06:11:12;;;;;;;6.42;2.62;;;;;;;15.06;53.44;98467.27;1717914;81;21167;-70
2021/05/07 06:13:39;;;;;;;8.85;3.22;;;;;;;14.86;53.07;98466.34;1718895;81;21212;-70
2021/05/07 06:16:06;;;;;;;5.37;2.10;;;;;;;14.76;53.17;98470.73;1719120;81;21068;-71
2021/05/07 06:18:33;;;;;;;8.95;2.58;;;;;;;14.70;53.09;98476.47;1716931;81;21294;-70
2021/05/07 06:21:00;;;;;;;;;;;;;;;14.54;52.99;98485.66;1695606;82;21196;-70
2021/05/07 06:23:27;;;;;;;6.47;2.60;;;;;;;14.48;52.63;98486.14;1721118;82;20458;-71
2021/05/07 06:25:54;;;;;;;6.17;2.45;;;;;;;14.62;53.14;98485.02;1723667;82;21207;-71
2021/05/07 06:28:21;;;;;;;6.30;2.08;;;;;;;14.84;53.03;98486.66;1726454;82;21732;-70
2021/05/07 06:30:48;;;;;;;5.75;2.00;;;;;;;15.14;52.68;98485.02;1723011;82;21626;-71
2021/05/07 06:33:15;;;;;;;5.08;2.40;;;;;;;15.44;52.13;98483.69;1723182;82;21193;-71
2021/05/07 06:35:42;;;;;;;;;;;;;;;15.40;51.62;98484.94;1722429;82;21282;-71
2021/05/07 06:38:09;;;;;;;;;;;;;;;14.99;51.08;98488.00;1725662;82;20273;-71
2021/05/07 06:40:37;;;;;;;5.28;2.12;;;;;;;14.96;50.95;98488.27;1719334;82;20580;-71
2021/05/07 06:43:05;;;;;;;6.97;2.02;;;;;;;14.66;51.44;98492.16;1721672;82;21661;-72
2021/05/07 06:45:32;;;;;;;5.80;2.12;;;;;;;14.93;51.62;98489.84;1725270;82;21216;-72
2021/05/07 06:48:00;;;;;;;3.67;1.70;;;;;;;14.52;49.86;98499.87;1718265;82;21251;-72
2021/05/07 06:50:27;;;;;;;6.28;1.98;;;;;;;14.47;49.91;98497.58;1722106;82;21234;-72
2021/05/07 06:52:54;;;;;;;4.72;2.37;;;;;;;13.91;49.63;98489.09;1715363;82;21649;-72
2021/05/07 06:55:21;;;;;;;5.33;2.70;;;;;;;13.78;49.71;98491.41;1720035;82;21655;-72
2021/05/07 06:57:50;;;;;;;5.10;1.80;;;;;;;13.86;50.12;98492.08;1723669;82;22765;-71
2021/05/07 07:00:18;;;;;;;6.35;2.58;;;;;;;14.39;50.46;98493.44;1716997;82;21214;-72
2021/05/07 07:02:46;;;;;;;6.83;2.10;;;;;;;14.85;50.41;98488.34;1719562;82;21286;-72
2021/05/07 07:05:14;;;;;;;4.95;2.02;;;;;;;15.20;50.49;98491.06;1718325;81;21593;-70
2021/05/07 07:07:44;;;;;;;68.10;7.87;;;;;;;15.73;50.78;98493.48;1716482;81;21266;-70
2021/05/07 07:10:12;;;;;;;18.02;6.92;;;;;;;16.23;50.41;98492.09;1721422;82;21478;-71
2021/05/07 07:12:40;;;;;;;7.92;3.30;;;;;;;16.59;50.31;98489.73;1721196;82;21231;-71
2021/05/07 07:15:07;;;;;;;;;;;;;;;16.61;49.11;98493.06;1724325;82;21344;-71
2021/05/07 07:17:35;;;;;;;202.97;25.08;;;;;;;16.18;48.28;98492.99;1718637;82;20952;-72
2021/05/07 07:20:03;;;;;;;12.15;2.80;;;;;;;15.42;48.82;98485.61;1718950;82;21286;-72
2021/05/07 07:22:30;;;;;;;29.85;3.58;;;;;;;15.31;49.48;98488.83;1718968;82;21214;-71
2021/05/07 07:24:57;;;;;;;93.03;13.50;;;;;;;15.16;49.51;98493.62;1720856;82;21687;-71
2021/05/07 07:27:24;;;;;;;42.55;6.58;;;;;;;15.09;49.68;98495.09;1720413;82;21109;-72
2021/05/07 07:29:52;;;;;;;18.20;4.45;;;;;;;14.72;48.52;98495.58;1705667;82;21546;-72
2021/05/07 07:32:19;;;;;;;14.07;3.15;;;;;;;13.98;47.32;98491.11;1718534;82;21238;-72
2021/05/07 07:34:47;;;;;;;21.30;4.45;;;;;;;13.13;48.06;98487.72;1702548;82;21426;-72
2021/05/07 07:37:15;;;;;;;53.85;8.50;;;;;;;12.95;48.50;98495.70;1720876;82;21689;-73
2021/05/07 07:39:42;;;;;;;;;;;;;;;13.05;49.39;98488.81;1719389;82;21207;-69
2021/05/07 07:42:11;;;;;;;5.75;2.67;;;;;;;13.30;49.47;98493.47;1719229;82;20326;-69
2021/05/07 07:44:39;;;;;;;14.28;3.00;;;;;;;13.46;49.36;98492.63;1666221;82;21704;-69
2021/05/07 07:47:07;;;;;;;5.50;1.57;;;;;;;13.69;49.16;98489.98;1723642;81;21179;-69
2021/05/07 07:49:35;;;;;;;;;;;;;;;13.69;48.95;98487.36;1723659;82;21219;-70
2021/05/07 07:52:03;;;;;;;14.03;2.05;;;;;;;13.48;48.60;98492.05;1722420;82;20274;-71
2021/05/07 07:54:30;;;;;;;4.12;1.60;;;;;;;13.40;48.48;98499.19;1719172;81;21206;-70
2021/05/07 07:57:01;;;;;;;7.03;1.98;;;;;;;13.50;49.31;98497.15;1733992;81;21221;-70
2021/05/07 07:59:29;;;;;;;6.35;1.75;;;;;;;13.69;48.94;98492.60;1720814;82;21618;-70
2021/05/07 08:01:57;;;;;;;8.45;2.47;;;;;;;13.72;48.96;98500.22;1697968;82;21215;-71
2021/05/07 08:04:27;;;;;;;4.35;1.40;;;;;;;13.84;49.09;98499.27;1724374;82;21191;-71
2021/05/07 08:06:55;;;;;;;5.47;1.77;;;;;;;14.08;48.31;98492.02;1723484;82;21190;-70
2021/05/07 08:09:22;;;;;;;10.10;2.10;;;;;;;13.54;46.97;98498.11;1725828;82;21245;-70
2021/05/07 08:11:53;;;;;;;7.40;1.62;;;;;;;12.96;48.12;98498.19;1729724;81;21282;-69
2021/05/07 08:14:23;;;;;;;4.25;1.20;;;;;;;12.88;48.23;98495.80;1721322;82;21222;-70
2021/05/07 08:16:50;;;;;;;5.92;1.75;;;;;;;12.48;47.34;98507.97;1718862;82;21167;-70
2021/05/07 08:19:17;;;;;;;7.70;2.10;;;;;;;11.68;46.26;98508.52;1720281;82;21166;-69
2021/05/07 08:21:45;;;;;;;3.80;2.60;;;;;;;11.37;47.56;98511.98;1726206;82;23732;-69
2021/05/07 08:24:12;;;;;;;3.98;1.40;;;;;;;11.36;48.30;98517.30;1720341;82;21298;-70
2021/05/07 08:26:39;;;;;;;5.70;1.65;;;;;;;11.25;45.74;98515.42;1715448;81;26687;-68
2021/05/07 08:29:21;;;;;;;3.95;1.50;;;;;;;10.79;47.37;98510.74;1722381;82;21266;-69
2021/05/07 08:31:54;;;;;;;4.40;1.42;;;;;;;10.68;47.54;98520.59;1720724;82;21627;-70
2021/05/07 08:34:23;;;;;;;2.20;1.12;;;;;;;10.92;48.14;98499.84;1724303;82;27088;-69
2021/05/07 08:36:50;;;;;;;4.10;1.62;;;;;;;11.08;47.62;98493.55;1724384;82;21208;-69
2021/05/07 08:39:19;;;;;;;9.83;2.20;;;;;;;11.08;47.62;98493.55;1718825;82;21171;-68
2021/05/07 08:41:49;;;;;;;2.42;1.00;;;;;;;10.89;47.37;98517.00;1721835;82;21579;-69
2021/05/07 08:44:18;;;;;;;5.70;1.45;;;;;;;10.86;46.89;98523.73;1720137;81;21573;-69
2021/05/07 08:46:46;;;;;;;4.62;1.55;;;;;;;10.86;46.89;98523.73;1723976;81;22423;-69
2021/05/07 08:49:19;;;;;;;3.95;1.80;;;;;;;10.46;46.42;98523.79;1722567;81;21226;-69
2021/05/07 08:54:16;;;;;;;8.48;2.10;;;;;;;10.41;46.21;98533.69;1796241;77;22822;-69
2021/05/07 08:56:45;;;;;;;3.98;1.20;;;;;;;10.18;47.06;98533.02;1775604;80;21080;-69
2021/05/07 08:59:12;;;;;;;7.30;1.50;;;;;;;10.13;47.00;98542.91;1769204;78;21197;-69
2021/05/07 09:01:48;;;;;;;21.57;2.77;;;;;;;10.21;47.59;98534.12;1772159;79;21692;-69
2021/05/07 09:04:18;;;;;;;31.80;7.65;;;;;;;10.57;47.72;98539.22;1765422;79;21649;-70
2021/05/07 09:06:55;;;;;;;27.45;9.05;;;;;;;10.65;47.50;98544.30;1768097;80;21195;-70
2021/05/07 09:09:28;;;;;;;39.25;6.80;;;;;;;10.85;47.77;98535.13;1771463;80;21084;-71
2021/05/07 09:11:59;;;;;;;69.50;11.30;;;;;;;11.05;47.71;98533.78;1775782;80;21198;-70
2021/05/07 09:14:28;;;;;;;60.92;9.98;;;;;;;10.90;47.39;98552.64;1769650;79;21117;-70
2021/05/07 09:17:01;;;;;;;16.05;5.67;;;;;;;10.63;47.15;98547.95;1770545;79;21009;-70
2021/05/07 09:19:34;;;;;;;223.72;32.65;;;;;;;10.78;48.22;98552.13;1767655;80;21668;-70
2021/05/07 09:22:01;;;;;;;19.05;2.62;;;;;;;11.10;48.05;98541.31;1772291;80;21210;-70
2021/05/07 09:24:36;;;;;;;46.65;8.33;;;;;;;11.08;46.80;98551.02;1766774;79;21215;-70
2021/05/07 09:27:06;;;;;;;19.62;3.95;;;;;;;11.01;47.42;98547.14;1768630;79;21162;-70
2021/05/07 09:29:37;;;;;;;137.55;25.15;;;;;;;10.95;46.66;98553.17;1766668;79;21268;-70
2021/05/07 09:32:05;;;;;;;76.22;13.98;;;;;;;10.72;47.25;98559.08;1766194;79;21211;-70
2021/05/07 09:34:37;;;;;;;86.92;15.65;;;;;;;10.64;47.38;98560.05;1773635;79;21391;-70
2021/05/07 09:37:19;;;;;;;61.02;11.35;;;;;;;10.55;47.40;98565.88;1768956;80;22075;-69
2021/05/07 09:39:46;;;;;;;73.72;11.10;;;;;;;10.50;47.58;98576.17;1774159;79;21156;-70
2021/05/07 09:42:32;;;;;;;90.15;16.67;;;;;;;10.76;47.75;98568.39;1770124;80;21670;-70
2021/05/07 09:44:56;;;;;;;27.55;6.03;;;;;;;11.11;47.67;98567.79;1773367;80;21191;-70
2021/05/07 09:47:28;;;;;;;;;;;;;;;11.36;47.66;98566.48;1772092;80;21246;-69
2021/05/07 09:50:07;;;;;;;15.88;3.42;;;;;;;11.52;47.36;98560.20;1773707;79;22384;-70
2021/05/07 09:52:36;;;;;;;47.93;7.80;;;;;;;11.68;46.65;98580.42;1772320;79;21621;-68
2021/05/07 09:55:04;;;;;;;13.22;3.52;;;;;;;11.66;46.60;98571.84;1770009;80;21179;-69
2021/05/07 09:57:32;;;;;;;33.18;4.65;;;;;;;11.46;46.70;98569.78;1773184;79;21172;-70
2021/05/07 10:00:00;;;;;;;;;;;;;;;11.64;47.11;98575.02;1771110;79;21203;-69
2021/05/07 10:02:29;;;;;;;21.73;2.60;;;;;;;11.94;47.36;98566.00;1768955;79;21195;-70
2021/05/07 10:06:57;;;;;;;4.75;1.70;;;;;;;13.08;47.55;98564.57;1786263;77;22920;-69
2021/05/07 10:09:46;;;;;;;14.63;2.10;;;;;;;13.55;47.59;98560.08;1753823;79;21016;-69
2021/05/07 10:12:14;;;;;;;7.12;4.45;;;;;;;13.73;46.51;98567.49;1694813;83;21133;-70
2021/05/07 10:14:47;;;;;;;7.55;1.92;;;;;;;13.49;46.31;98569.75;1687187;83;21119;-69
2021/05/07 10:17:14;;;;;;;3.50;1.30;;;;;;;13.37;45.61;98570.70;1667463;83;21291;-69
2021/05/07 10:19:42;;;;;;;;;;;;;;;13.10;46.08;98575.75;1665356;84;21165;-69
2021/05/07 10:22:11;;;;;;;4.12;1.27;;;;;;;12.89;45.78;98566.91;1697352;82;20177;-69
2021/05/07 10:24:42;;;;;;;3.17;1.17;;;;;;;12.75;45.66;98571.38;1689462;84;21278;-70
2021/05/07 10:27:20;;;;;;;5.33;1.40;;;;;;;12.33;45.04;98579.79;1667572;83;21229;-71
2021/05/07 10:29:59;;;;;;;4.58;1.42;;;;;;;12.29;45.98;98574.78;1679023;82;21474;-70
2021/05/07 10:32:38;;;;;;;3.25;1.15;;;;;;;12.71;46.59;98565.16;1666549;83;21327;-70
2021/05/07 10:35:08;;;;;;;3.67;1.47;;;;;;;13.26;46.65;98572.00;1647431;83;21259;-66
2021/05/07 10:37:44;;;;;;;5.25;1.60;;;;;;;13.16;45.20;98572.69;1702427;82;21215;-71
2021/05/07 10:40:17;;;;;;;3.27;1.10;;;;;;;12.98;45.71;98579.30;1692710;83;21597;-70
2021/05/07 10:42:57;;;;;;;4.50;1.32;;;;;;;13.12;46.19;98586.95;1669148;83;21280;-70
2021/05/07 10:45:45;;;;;;;8.05;1.52;;;;;;;13.15;44.97;98588.52;1689208;83;21180;-71
2021/05/07 10:48:22;;;;;;;2.12;1.25;;;;;;;13.19;45.81;98590.80;1669958;83;21666;-70
2021/05/07 10:50:58;;;;;;;3.55;1.70;;;;;;;12.81;42.71;98582.36;1689833;84;22197;-71
2021/05/07 10:53:35;;;;;;;4.08;1.52;;;;;;;12.64;45.68;98576.58;1667320;83;21206;-71
2021/05/07 10:56:19;;;;;;;7.90;1.62;;;;;;;13.11;46.16;98575.30;1667090;84;21211;-70
2021/05/07 10:58:49;;;;;;;2.08;1.00;;;;;;;13.49;45.83;98576.30;1665295;84;21195;-70
2021/05/07 11:01:24;;;;;;;4.28;1.42;;;;;;;13.54;45.58;98575.95;1662014;84;21661;-70
2021/05/07 11:04:07;;;;;;;5.03;1.40;;;;;;;13.48;45.42;98579.88;1687863;83;21279;-70
2021/05/07 11:06:45;;;;;;;5.17;1.40;;;;;;;12.87;44.26;98587.13;1686589;83;21191;-70
2021/05/07 11:09:20;;;;;;;9.33;1.82;;;;;;;12.33;44.17;98587.64;1687772;83;21125;-70
2021/05/07 11:11:51;;;;;;;3.12;1.42;;;;;;;12.09;44.99;98587.96;1696723;83;21263;-70
2021/05/07 11:14:24;;;;;;;3.15;1.25;;;;;;;12.12;45.18;98587.39;1680288;83;21248;-71
2021/05/07 11:16:53;;;;;;;8.68;1.72;;;;;;;12.23;44.92;98583.05;1666316;84;21263;-71
2021/05/07 11:19:27;;;;;;;9.58;1.85;;;;;;;12.23;45.18;98577.81;1696066;83;21298;-71
2021/05/07 11:22:03;;;;;;;10.20;2.45;;;;;;;12.33;45.16;98582.41;1668417;84;21206;-71
2021/05/07 11:27:27;;;;;;;2.87;1.17;;;;;;;12.47;44.59;98582.23;1776919;78;22958;-70
2021/05/07 11:30:09;;;;;;;20.43;2.12;;;;;;;12.38;44.58;98586.81;1743122;80;21356;-70
2021/05/07 11:32:36;;;;;;;100.10;7.40;;;;;;;12.21;44.27;98586.72;1690031;83;22024;-71
2021/05/07 11:35:11;;;;;;;86.35;6.37;;;;;;;12.29;44.65;98590.48;1691466;83;21089;-70
2021/05/07 11:40:18;;;;;;;14.60;3.00;;;;;;;12.41;44.53;98585.30;1830701;74;22797;-70
2021/05/07 11:42:47;;;;;;;19.17;2.92;;;;;;;12.51;44.43;98583.66;1799641;78;21543;-70
2021/05/07 11:45:21;;;;;;;29.82;2.40;;;;;;;12.58;44.48;98588.83;1800161;78;21609;-70
2021/05/07 11:47:50;;;;;;;8.68;2.10;;;;;;;12.61;44.28;98589.08;1803671;78;21181;-70
2021/05/07 11:50:20;;;;;;;14.68;2.00;;;;;;;12.61;44.38;98594.31;1806381;78;21025;-70
2021/05/07 11:52:50;;;;;;;8.10;1.57;;;;;;;12.65;44.24;98599.19;1800791;77;21046;-69
2021/05/07 11:55:25;;;;;;;5.05;1.37;;;;;;;12.52;43.27;98603.69;1801612;78;20997;-69
2021/05/07 11:58:09;;;;;;;6.95;1.17;;;;;;;12.65;43.94;98603.12;1802471;77;21188;-70
2021/05/07 12:00:39;;;;;;;15.35;1.82;;;;;;;12.86;43.47;98601.20;1806391;78;21737;-70
2021/05/07 12:06:00;;;;;;;21.45;2.37;;;;;;;12.76;43.15;98603.64;1591943;88;21377;-70